< < Back
Terminal Aerodrome Forecast


Current Version              Previous Versions:   1  2  3  4  5  6  7  8  9  

Terminal Aerodrome Forecast

769
FTUS44 KBMX 261100
TAFTCL
TAF
KTCL 261128Z 2612/2712 29005KT P6SM SKC
     FM261800 20008KT P6SM SCT150
     FM270300 29008KT P6SM SKC=

Latest METAR

873
SAUS70 KWBC 261300 RRJ
MTRTCL
METAR KTCL 261253Z 00000KT 9SM CLR M01/M03 A3019 RMK AO2 SLP223
T10111028


USA.gov is the U.S. government's official web portal to all federal, state and local government web resources and services.